sensor_id;sensor_type;location;lat;lon;timestamp;P1;durP1;ratioP1;P2;durP2;ratioP2
33830;SDS011;20137;48.834;8.732;2023-04-19T00:01:22;32.70;;;17.00;;
33830;SDS011;20137;48.834;8.732;2023-04-19T00:03:48;26.55;;;16.10;;
33830;SDS011;20137;48.834;8.732;2023-04-19T00:06:14;28.73;;;16.23;;
33830;SDS011;20137;48.834;8.732;2023-04-19T00:08:41;34.58;;;19.05;;
33830;SDS011;20137;48.834;8.732;2023-04-19T00:11:07;31.77;;;18.08;;
33830;SDS011;20137;48.834;8.732;2023-04-19T00:13:33;31.85;;;18.95;;
33830;SDS011;20137;48.834;8.732;2023-04-19T00:15:59;29.88;;;17.80;;
33830;SDS011;20137;48.834;8.732;2023-04-19T00:18:25;34.03;;;19.33;;
33830;SDS011;20137;48.834;8.732;2023-04-19T00:20:50;32.22;;;18.70;;
33830;SDS011;20137;48.834;8.732;2023-04-19T00:23:16;34.95;;;18.45;;
33830;SDS011;20137;48.834;8.732;2023-04-19T00:25:42;32.30;;;17.95;;
33830;SDS011;20137;48.834;8.732;2023-04-19T00:28:10;30.70;;;18.23;;
33830;SDS011;20137;48.834;8.732;2023-04-19T00:30:35;33.90;;;18.25;;
33830;SDS011;20137;48.834;8.732;2023-04-19T00:33:01;32.03;;;19.13;;
33830;SDS011;20137;48.834;8.732;2023-04-19T00:35:27;34.60;;;20.88;;
33830;SDS011;20137;48.834;8.732;2023-04-19T00:37:52;36.03;;;20.67;;
33830;SDS011;20137;48.834;8.732;2023-04-19T00:40:18;34.80;;;18.80;;
33830;SDS011;20137;48.834;8.732;2023-04-19T00:42:44;33.78;;;19.70;;
33830;SDS011;20137;48.834;8.732;2023-04-19T00:45:10;37.33;;;19.15;;
33830;SDS011;20137;48.834;8.732;2023-04-19T00:47:36;33.15;;;18.52;;
33830;SDS011;20137;48.834;8.732;2023-04-19T00:50:02;38.40;;;21.10;;
33830;SDS011;20137;48.834;8.732;2023-04-19T00:52:29;33.25;;;18.17;;
33830;SDS011;20137;48.834;8.732;2023-04-19T00:54:56;34.33;;;18.85;;
33830;SDS011;20137;48.834;8.732;2023-04-19T00:57:23;34.85;;;18.75;;
33830;SDS011;20137;48.834;8.732;2023-04-19T00:59:50;34.33;;;19.15;;
33830;SDS011;20137;48.834;8.732;2023-04-19T01:02:16;32.92;;;19.45;;
33830;SDS011;20137;48.834;8.732;2023-04-19T01:04:42;36.45;;;20.83;;
33830;SDS011;20137;48.834;8.732;2023-04-19T01:07:08;36.05;;;20.52;;
33830;SDS011;20137;48.834;8.732;2023-04-19T01:09:34;38.08;;;20.08;;
33830;SDS011;20137;48.834;8.732;2023-04-19T01:12:03;40.47;;;20.02;;
33830;SDS011;20137;48.834;8.732;2023-04-19T01:14:29;37.95;;;21.13;;
33830;SDS011;20137;48.834;8.732;2023-04-19T01:16:55;38.00;;;21.23;;
33830;SDS011;20137;48.834;8.732;2023-04-19T01:19:21;36.38;;;21.08;;
33830;SDS011;20137;48.834;8.732;2023-04-19T01:21:47;38.13;;;19.75;;
33830;SDS011;20137;48.834;8.732;2023-04-19T01:24:14;38.40;;;20.58;;
33830;SDS011;20137;48.834;8.732;2023-04-19T01:26:39;40.88;;;21.38;;
33830;SDS011;20137;48.834;8.732;2023-04-19T01:29:05;38.58;;;21.02;;
33830;SDS011;20137;48.834;8.732;2023-04-19T01:31:31;40.33;;;22.20;;
33830;SDS011;20137;48.834;8.732;2023-04-19T01:33:56;40.30;;;21.60;;
33830;SDS011;20137;48.834;8.732;2023-04-19T01:36:22;38.60;;;20.13;;
33830;SDS011;20137;48.834;8.732;2023-04-19T01:38:48;39.17;;;21.83;;
33830;SDS011;20137;48.834;8.732;2023-04-19T01:41:14;42.70;;;22.65;;
33830;SDS011;20137;48.834;8.732;2023-04-19T01:43:39;36.70;;;21.23;;
33830;SDS011;20137;48.834;8.732;2023-04-19T01:46:05;34.97;;;20.80;;
33830;SDS011;20137;48.834;8.732;2023-04-19T01:48:31;37.50;;;21.33;;
33830;SDS011;20137;48.834;8.732;2023-04-19T01:50:56;40.60;;;22.13;;
33830;SDS011;20137;48.834;8.732;2023-04-19T01:53:22;40.53;;;21.73;;
33830;SDS011;20137;48.834;8.732;2023-04-19T01:55:48;40.60;;;22.40;;
33830;SDS011;20137;48.834;8.732;2023-04-19T01:58:14;39.90;;;20.90;;
33830;SDS011;20137;48.834;8.732;2023-04-19T02:00:39;41.42;;;23.23;;
33830;SDS011;20137;48.834;8.732;2023-04-19T02:03:05;39.33;;;21.25;;
33830;SDS011;20137;48.834;8.732;2023-04-19T02:05:31;38.90;;;22.02;;
33830;SDS011;20137;48.834;8.732;2023-04-19T02:07:56;43.33;;;23.48;;
33830;SDS011;20137;48.834;8.732;2023-04-19T02:10:22;38.90;;;21.23;;
33830;SDS011;20137;48.834;8.732;2023-04-19T02:12:48;38.10;;;20.10;;
33830;SDS011;20137;48.834;8.732;2023-04-19T02:15:13;41.55;;;21.60;;
33830;SDS011;20137;48.834;8.732;2023-04-19T02:17:39;41.92;;;22.90;;
33830;SDS011;20137;48.834;8.732;2023-04-19T02:20:05;43.75;;;21.90;;
33830;SDS011;20137;48.834;8.732;2023-04-19T02:22:34;41.63;;;22.67;;
33830;SDS011;20137;48.834;8.732;2023-04-19T02:25:00;41.00;;;21.80;;
33830;SDS011;20137;48.834;8.732;2023-04-19T02:27:26;44.83;;;22.27;;
33830;SDS011;20137;48.834;8.732;2023-04-19T02:29:54;44.50;;;22.90;;
33830;SDS011;20137;48.834;8.732;2023-04-19T02:32:20;43.65;;;22.83;;
33830;SDS011;20137;48.834;8.732;2023-04-19T02:34:46;43.22;;;22.83;;
33830;SDS011;20137;48.834;8.732;2023-04-19T02:37:11;46.33;;;24.00;;
33830;SDS011;20137;48.834;8.732;2023-04-19T02:39:37;43.22;;;23.08;;
33830;SDS011;20137;48.834;8.732;2023-04-19T02:42:05;41.92;;;24.10;;
33830;SDS011;20137;48.834;8.732;2023-04-19T02:44:31;47.30;;;23.08;;
33830;SDS011;20137;48.834;8.732;2023-04-19T02:46:57;43.78;;;23.08;;
33830;SDS011;20137;48.834;8.732;2023-04-19T02:49:22;45.00;;;24.10;;
33830;SDS011;20137;48.834;8.732;2023-04-19T02:51:49;41.95;;;22.75;;
33830;SDS011;20137;48.834;8.732;2023-04-19T02:54:16;42.13;;;22.25;;
33830;SDS011;20137;48.834;8.732;2023-04-19T02:56:42;41.72;;;22.70;;
33830;SDS011;20137;48.834;8.732;2023-04-19T02:59:07;40.30;;;22.15;;
33830;SDS011;20137;48.834;8.732;2023-04-19T03:01:33;44.80;;;24.23;;
33830;SDS011;20137;48.834;8.732;2023-04-19T03:03:59;44.65;;;22.13;;
33830;SDS011;20137;48.834;8.732;2023-04-19T03:06:24;43.67;;;22.83;;
33830;SDS011;20137;48.834;8.732;2023-04-19T03:08:50;44.92;;;24.10;;
33830;SDS011;20137;48.834;8.732;2023-04-19T03:11:16;42.15;;;22.60;;
33830;SDS011;20137;48.834;8.732;2023-04-19T03:13:42;41.65;;;22.45;;
33830;SDS011;20137;48.834;8.732;2023-04-19T03:16:08;42.47;;;23.60;;
33830;SDS011;20137;48.834;8.732;2023-04-19T03:18:34;40.80;;;22.92;;
33830;SDS011;20137;48.834;8.732;2023-04-19T03:21:00;42.63;;;22.85;;
33830;SDS011;20137;48.834;8.732;2023-04-19T03:23:26;41.25;;;22.58;;
33830;SDS011;20137;48.834;8.732;2023-04-19T03:25:52;43.58;;;23.63;;
33830;SDS011;20137;48.834;8.732;2023-04-19T03:28:18;39.88;;;23.10;;
33830;SDS011;20137;48.834;8.732;2023-04-19T03:30:43;43.75;;;23.70;;
33830;SDS011;20137;48.834;8.732;2023-04-19T03:33:09;41.20;;;24.23;;
33830;SDS011;20137;48.834;8.732;2023-04-19T03:35:35;44.78;;;25.08;;
33830;SDS011;20137;48.834;8.732;2023-04-19T03:38:01;44.20;;;24.55;;
33830;SDS011;20137;48.834;8.732;2023-04-19T03:40:26;45.92;;;25.70;;
33830;SDS011;20137;48.834;8.732;2023-04-19T03:42:53;43.85;;;24.00;;
33830;SDS011;20137;48.834;8.732;2023-04-19T03:45:19;47.75;;;24.48;;
33830;SDS011;20137;48.834;8.732;2023-04-19T03:47:44;43.80;;;24.27;;
33830;SDS011;20137;48.834;8.732;2023-04-19T03:50:10;45.65;;;24.35;;
33830;SDS011;20137;48.834;8.732;2023-04-19T03:52:36;49.40;;;25.20;;
33830;SDS011;20137;48.834;8.732;2023-04-19T03:55:02;47.50;;;25.85;;
33830;SDS011;20137;48.834;8.732;2023-04-19T03:57:27;44.85;;;24.52;;
33830;SDS011;20137;48.834;8.732;2023-04-19T03:59:53;47.08;;;24.35;;
33830;SDS011;20137;48.834;8.732;2023-04-19T04:02:18;46.05;;;24.45;;
33830;SDS011;20137;48.834;8.732;2023-04-19T04:04:44;47.85;;;25.15;;
33830;SDS011;20137;48.834;8.732;2023-04-19T04:07:10;45.22;;;24.92;;
33830;SDS011;20137;48.834;8.732;2023-04-19T04:09:35;48.13;;;24.13;;
33830;SDS011;20137;48.834;8.732;2023-04-19T04:12:01;45.20;;;24.45;;
33830;SDS011;20137;48.834;8.732;2023-04-19T04:14:27;44.78;;;23.48;;
33830;SDS011;20137;48.834;8.732;2023-04-19T04:16:52;49.30;;;26.63;;
33830;SDS011;20137;48.834;8.732;2023-04-19T04:19:18;45.38;;;25.33;;
33830;SDS011;20137;48.834;8.732;2023-04-19T04:21:45;48.58;;;25.13;;
33830;SDS011;20137;48.834;8.732;2023-04-19T04:24:11;47.25;;;25.70;;
33830;SDS011;20137;48.834;8.732;2023-04-19T04:26:37;48.40;;;26.42;;
33830;SDS011;20137;48.834;8.732;2023-04-19T04:29:03;44.50;;;24.13;;
33830;SDS011;20137;48.834;8.732;2023-04-19T04:31:29;47.10;;;25.30;;
33830;SDS011;20137;48.834;8.732;2023-04-19T04:33:56;45.10;;;25.33;;
33830;SDS011;20137;48.834;8.732;2023-04-19T04:36:22;45.17;;;24.75;;
33830;SDS011;20137;48.834;8.732;2023-04-19T04:38:47;44.78;;;24.60;;
33830;SDS011;20137;48.834;8.732;2023-04-19T04:41:13;45.85;;;23.75;;
33830;SDS011;20137;48.834;8.732;2023-04-19T04:43:40;49.67;;;26.05;;
33830;SDS011;20137;48.834;8.732;2023-04-19T04:46:06;44.03;;;23.67;;
33830;SDS011;20137;48.834;8.732;2023-04-19T04:48:33;41.92;;;23.10;;
33830;SDS011;20137;48.834;8.732;2023-04-19T04:50:58;41.58;;;23.33;;
33830;SDS011;20137;48.834;8.732;2023-04-19T04:53:24;41.83;;;22.80;;
33830;SDS011;20137;48.834;8.732;2023-04-19T04:55:51;45.47;;;24.17;;
33830;SDS011;20137;48.834;8.732;2023-04-19T04:58:18;43.38;;;23.70;;
33830;SDS011;20137;48.834;8.732;2023-04-19T05:00:44;45.55;;;24.45;;
33830;SDS011;20137;48.834;8.732;2023-04-19T05:03:09;42.22;;;23.73;;
33830;SDS011;20137;48.834;8.732;2023-04-19T05:05:35;49.85;;;23.38;;
33830;SDS011;20137;48.834;8.732;2023-04-19T05:08:01;40.17;;;21.65;;
33830;SDS011;20137;48.834;8.732;2023-04-19T05:10:27;42.03;;;22.40;;
33830;SDS011;20137;48.834;8.732;2023-04-19T05:12:52;42.97;;;24.25;;
33830;SDS011;20137;48.834;8.732;2023-04-19T05:15:18;40.63;;;23.73;;
33830;SDS011;20137;48.834;8.732;2023-04-19T05:17:44;38.08;;;21.65;;
33830;SDS011;20137;48.834;8.732;2023-04-19T05:20:10;42.90;;;23.20;;
33830;SDS011;20137;48.834;8.732;2023-04-19T05:22:36;44.50;;;23.85;;
33830;SDS011;20137;48.834;8.732;2023-04-19T05:25:02;41.85;;;22.70;;
33830;SDS011;20137;48.834;8.732;2023-04-19T05:27:27;40.75;;;22.42;;
33830;SDS011;20137;48.834;8.732;2023-04-19T05:29:53;41.60;;;22.13;;
33830;SDS011;20137;48.834;8.732;2023-04-19T05:32:19;37.70;;;22.20;;
33830;SDS011;20137;48.834;8.732;2023-04-19T05:34:44;33.92;;;20.42;;
33830;SDS011;20137;48.834;8.732;2023-04-19T05:37:10;39.67;;;21.80;;
33830;SDS011;20137;48.834;8.732;2023-04-19T05:39:36;36.40;;;21.73;;
33830;SDS011;20137;48.834;8.732;2023-04-19T05:42:01;36.83;;;20.90;;
33830;SDS011;20137;48.834;8.732;2023-04-19T05:44:27;37.97;;;21.65;;
33830;SDS011;20137;48.834;8.732;2023-04-19T05:46:52;41.08;;;22.40;;
33830;SDS011;20137;48.834;8.732;2023-04-19T05:49:18;38.85;;;21.42;;
33830;SDS011;20137;48.834;8.732;2023-04-19T05:51:44;36.63;;;20.38;;
33830;SDS011;20137;48.834;8.732;2023-04-19T05:54:10;33.50;;;19.92;;
33830;SDS011;20137;48.834;8.732;2023-04-19T05:56:37;37.20;;;21.08;;
33830;SDS011;20137;48.834;8.732;2023-04-19T05:59:03;34.33;;;20.70;;
33830;SDS011;20137;48.834;8.732;2023-04-19T06:01:29;36.83;;;21.83;;
33830;SDS011;20137;48.834;8.732;2023-04-19T06:03:54;39.97;;;22.05;;
33830;SDS011;20137;48.834;8.732;2023-04-19T06:06:20;37.40;;;21.02;;
33830;SDS011;20137;48.834;8.732;2023-04-19T06:08:47;36.13;;;20.65;;
33830;SDS011;20137;48.834;8.732;2023-04-19T06:11:13;37.47;;;21.45;;
33830;SDS011;20137;48.834;8.732;2023-04-19T06:13:38;39.15;;;21.42;;
33830;SDS011;20137;48.834;8.732;2023-04-19T06:16:04;33.40;;;19.85;;
33830;SDS011;20137;48.834;8.732;2023-04-19T06:18:31;34.20;;;20.38;;
33830;SDS011;20137;48.834;8.732;2023-04-19T06:20:57;33.50;;;19.60;;
33830;SDS011;20137;48.834;8.732;2023-04-19T06:23:23;35.58;;;21.13;;
33830;SDS011;20137;48.834;8.732;2023-04-19T06:25:49;32.33;;;19.38;;
33830;SDS011;20137;48.834;8.732;2023-04-19T06:28:15;30.35;;;17.70;;
33830;SDS011;20137;48.834;8.732;2023-04-19T06:30:41;34.13;;;21.75;;
33830;SDS011;20137;48.834;8.732;2023-04-19T06:33:06;30.52;;;18.92;;
33830;SDS011;20137;48.834;8.732;2023-04-19T06:35:32;26.38;;;17.40;;
33830;SDS011;20137;48.834;8.732;2023-04-19T06:37:58;29.15;;;18.40;;
33830;SDS011;20137;48.834;8.732;2023-04-19T06:40:24;29.20;;;18.30;;
33830;SDS011;20137;48.834;8.732;2023-04-19T06:42:50;26.77;;;17.77;;
33830;SDS011;20137;48.834;8.732;2023-04-19T06:45:17;29.45;;;17.38;;
33830;SDS011;20137;48.834;8.732;2023-04-19T06:47:42;29.38;;;18.25;;
33830;SDS011;20137;48.834;8.732;2023-04-19T06:50:08;25.63;;;16.60;;
33830;SDS011;20137;48.834;8.732;2023-04-19T06:52:35;26.85;;;16.45;;
33830;SDS011;20137;48.834;8.732;2023-04-19T06:55:00;28.02;;;16.95;;
33830;SDS011;20137;48.834;8.732;2023-04-19T06:57:26;30.75;;;16.80;;
33830;SDS011;20137;48.834;8.732;2023-04-19T06:59:55;26.23;;;15.63;;
33830;SDS011;20137;48.834;8.732;2023-04-19T07:02:20;28.73;;;16.40;;
33830;SDS011;20137;48.834;8.732;2023-04-19T07:04:47;26.50;;;16.40;;
33830;SDS011;20137;48.834;8.732;2023-04-19T07:07:13;26.38;;;16.70;;
33830;SDS011;20137;48.834;8.732;2023-04-19T07:09:38;28.52;;;16.95;;
33830;SDS011;20137;48.834;8.732;2023-04-19T07:12:04;28.92;;;15.85;;
33830;SDS011;20137;48.834;8.732;2023-04-19T07:14:30;24.90;;;15.38;;
33830;SDS011;20137;48.834;8.732;2023-04-19T07:16:56;24.85;;;15.27;;
33830;SDS011;20137;48.834;8.732;2023-04-19T07:19:22;22.95;;;15.40;;
33830;SDS011;20137;48.834;8.732;2023-04-19T07:21:49;23.30;;;14.65;;
33830;SDS011;20137;48.834;8.732;2023-04-19T07:24:15;24.42;;;14.98;;
33830;SDS011;20137;48.834;8.732;2023-04-19T07:26:41;20.65;;;13.52;;
33830;SDS011;20137;48.834;8.732;2023-04-19T07:29:06;24.48;;;14.07;;
33830;SDS011;20137;48.834;8.732;2023-04-19T07:31:32;21.45;;;14.68;;
33830;SDS011;20137;48.834;8.732;2023-04-19T07:33:58;24.92;;;15.30;;
33830;SDS011;20137;48.834;8.732;2023-04-19T07:36:23;27.50;;;17.42;;
33830;SDS011;20137;48.834;8.732;2023-04-19T07:38:49;24.50;;;15.32;;
33830;SDS011;20137;48.834;8.732;2023-04-19T07:41:15;22.60;;;15.13;;
33830;SDS011;20137;48.834;8.732;2023-04-19T07:43:42;25.73;;;15.75;;
33830;SDS011;20137;48.834;8.732;2023-04-19T07:46:08;24.85;;;16.00;;
33830;SDS011;20137;48.834;8.732;2023-04-19T07:48:34;24.67;;;15.40;;
33830;SDS011;20137;48.834;8.732;2023-04-19T07:51:10;24.23;;;15.02;;
33830;SDS011;20137;48.834;8.732;2023-04-19T07:53:37;28.52;;;15.27;;
33830;SDS011;20137;48.834;8.732;2023-04-19T07:56:04;24.15;;;15.38;;
33830;SDS011;20137;48.834;8.732;2023-04-19T07:58:31;25.77;;;15.10;;
33830;SDS011;20137;48.834;8.732;2023-04-19T08:00:56;21.00;;;13.15;;
33830;SDS011;20137;48.834;8.732;2023-04-19T08:03:22;24.40;;;14.20;;
33830;SDS011;20137;48.834;8.732;2023-04-19T08:05:47;21.27;;;12.82;;
33830;SDS011;20137;48.834;8.732;2023-04-19T08:08:13;18.80;;;11.75;;
33830;SDS011;20137;48.834;8.732;2023-04-19T08:10:39;19.05;;;12.98;;
33830;SDS011;20137;48.834;8.732;2023-04-19T08:13:05;19.40;;;12.15;;
33830;SDS011;20137;48.834;8.732;2023-04-19T08:15:31;20.50;;;12.70;;
33830;SDS011;20137;48.834;8.732;2023-04-19T08:17:58;20.48;;;12.93;;
33830;SDS011;20137;48.834;8.732;2023-04-19T08:20:23;17.50;;;11.60;;
33830;SDS011;20137;48.834;8.732;2023-04-19T08:22:49;27.00;;;15.77;;
33830;SDS011;20137;48.834;8.732;2023-04-19T08:25:15;37.25;;;17.08;;
33830;SDS011;20137;48.834;8.732;2023-04-19T08:27:41;23.38;;;13.00;;
33830;SDS011;20137;48.834;8.732;2023-04-19T08:30:07;18.13;;;11.45;;
33830;SDS011;20137;48.834;8.732;2023-04-19T08:32:33;19.35;;;11.57;;
33830;SDS011;20137;48.834;8.732;2023-04-19T08:34:59;19.65;;;10.85;;
33830;SDS011;20137;48.834;8.732;2023-04-19T08:37:25;13.90;;;9.35;;
33830;SDS011;20137;48.834;8.732;2023-04-19T08:39:51;16.30;;;9.30;;
33830;SDS011;20137;48.834;8.732;2023-04-19T08:42:17;15.75;;;9.43;;
33830;SDS011;20137;48.834;8.732;2023-04-19T08:44:43;14.02;;;9.23;;
33830;SDS011;20137;48.834;8.732;2023-04-19T08:47:10;17.05;;;10.32;;
33830;SDS011;20137;48.834;8.732;2023-04-19T08:49:37;16.40;;;10.40;;
33830;SDS011;20137;48.834;8.732;2023-04-19T08:52:03;20.50;;;10.40;;
33830;SDS011;20137;48.834;8.732;2023-04-19T08:54:33;16.15;;;10.40;;
33830;SDS011;20137;48.834;8.732;2023-04-19T08:57:00;16.88;;;11.38;;
33830;SDS011;20137;48.834;8.732;2023-04-19T08:59:26;16.50;;;10.13;;
33830;SDS011;20137;48.834;8.732;2023-04-19T09:01:53;17.55;;;11.25;;
33830;SDS011;20137;48.834;8.732;2023-04-19T09:04:20;14.95;;;9.68;;
33830;SDS011;20137;48.834;8.732;2023-04-19T09:06:46;16.17;;;10.88;;
33830;SDS011;20137;48.834;8.732;2023-04-19T09:09:22;16.98;;;11.45;;
33830;SDS011;20137;48.834;8.732;2023-04-19T09:11:49;18.35;;;11.95;;
33830;SDS011;20137;48.834;8.732;2023-04-19T09:14:15;18.10;;;11.32;;
33830;SDS011;20137;48.834;8.732;2023-04-19T09:16:43;20.77;;;13.30;;
33830;SDS011;20137;48.834;8.732;2023-04-19T09:19:09;19.00;;;11.55;;
33830;SDS011;20137;48.834;8.732;2023-04-19T09:21:36;18.52;;;11.73;;
33830;SDS011;20137;48.834;8.732;2023-04-19T09:24:02;19.15;;;11.45;;
33830;SDS011;20137;48.834;8.732;2023-04-19T09:26:28;23.75;;;12.57;;
33830;SDS011;20137;48.834;8.732;2023-04-19T09:29:04;17.35;;;11.35;;
33830;SDS011;20137;48.834;8.732;2023-04-19T09:31:33;18.42;;;11.25;;
33830;SDS011;20137;48.834;8.732;2023-04-19T09:34:13;19.70;;;12.48;;
33830;SDS011;20137;48.834;8.732;2023-04-19T09:36:40;17.23;;;11.57;;
33830;SDS011;20137;48.834;8.732;2023-04-19T09:39:06;17.27;;;11.90;;
33830;SDS011;20137;48.834;8.732;2023-04-19T09:41:32;17.83;;;11.98;;
33830;SDS011;20137;48.834;8.732;2023-04-19T09:44:16;18.83;;;12.30;;
33830;SDS011;20137;48.834;8.732;2023-04-19T09:46:43;18.80;;;10.98;;
33830;SDS011;20137;48.834;8.732;2023-04-19T09:51:40;16.60;;;10.23;;
33830;SDS011;20137;48.834;8.732;2023-04-19T09:54:07;16.50;;;12.02;;
33830;SDS011;20137;48.834;8.732;2023-04-19T09:56:34;16.35;;;11.27;;
33830;SDS011;20137;48.834;8.732;2023-04-19T09:59:04;19.30;;;13.13;;
33830;SDS011;20137;48.834;8.732;2023-04-19T10:01:46;16.35;;;10.90;;
33830;SDS011;20137;48.834;8.732;2023-04-19T10:04:18;17.23;;;10.82;;
33830;SDS011;20137;48.834;8.732;2023-04-19T10:06:48;19.15;;;12.10;;
33830;SDS011;20137;48.834;8.732;2023-04-19T10:09:22;18.42;;;11.63;;
33830;SDS011;20137;48.834;8.732;2023-04-19T10:11:50;16.88;;;10.70;;
33830;SDS011;20137;48.834;8.732;2023-04-19T10:14:21;18.52;;;11.50;;
33830;SDS011;20137;48.834;8.732;2023-04-19T10:16:51;17.30;;;9.85;;
33830;SDS011;20137;48.834;8.732;2023-04-19T10:19:18;22.75;;;12.13;;
33830;SDS011;20137;48.834;8.732;2023-04-19T10:21:46;15.80;;;10.50;;
33830;SDS011;20137;48.834;8.732;2023-04-19T10:24:13;18.60;;;11.25;;
33830;SDS011;20137;48.834;8.732;2023-04-19T10:35:22;16.13;;;9.90;;
33830;SDS011;20137;48.834;8.732;2023-04-19T10:38:05;19.15;;;10.95;;
33830;SDS011;20137;48.834;8.732;2023-04-19T10:43:23;16.90;;;10.80;;
33830;SDS011;20137;48.834;8.732;2023-04-19T10:45:49;16.10;;;10.50;;
33830;SDS011;20137;48.834;8.732;2023-04-19T10:53:43;17.35;;;11.48;;
33830;SDS011;20137;48.834;8.732;2023-04-19T10:56:10;16.50;;;10.40;;
33830;SDS011;20137;48.834;8.732;2023-04-19T10:59:22;17.17;;;9.30;;
33830;SDS011;20137;48.834;8.732;2023-04-19T11:01:39;18.50;;;10.32;;
33830;SDS011;20137;48.834;8.732;2023-04-19T11:04:13;24.88;;;13.73;;
33830;SDS011;20137;48.834;8.732;2023-04-19T11:09:23;15.68;;;10.38;;
33830;SDS011;20137;48.834;8.732;2023-04-19T11:12:02;16.02;;;10.20;;
33830;SDS011;20137;48.834;8.732;2023-04-19T11:14:39;15.45;;;9.80;;
33830;SDS011;20137;48.834;8.732;2023-04-19T11:17:15;13.45;;;8.93;;
33830;SDS011;20137;48.834;8.732;2023-04-19T11:25:24;15.02;;;9.98;;
33830;SDS011;20137;48.834;8.732;2023-04-19T11:27:50;14.05;;;9.65;;
33830;SDS011;20137;48.834;8.732;2023-04-19T11:30:21;17.38;;;9.75;;
33830;SDS011;20137;48.834;8.732;2023-04-19T11:32:53;16.20;;;11.07;;
33830;SDS011;20137;48.834;8.732;2023-04-19T11:35:20;17.85;;;11.60;;
33830;SDS011;20137;48.834;8.732;2023-04-19T11:37:47;18.40;;;12.00;;
33830;SDS011;20137;48.834;8.732;2023-04-19T11:40:14;19.27;;;11.77;;
33830;SDS011;20137;48.834;8.732;2023-04-19T11:42:43;18.00;;;10.98;;
33830;SDS011;20137;48.834;8.732;2023-04-19T11:45:10;20.73;;;11.95;;
33830;SDS011;20137;48.834;8.732;2023-04-19T11:47:47;17.08;;;11.52;;
33830;SDS011;20137;48.834;8.732;2023-04-19T11:55:45;20.02;;;12.18;;
33830;SDS011;20137;48.834;8.732;2023-04-19T11:59:00;22.10;;;13.30;;
33830;SDS011;20137;48.834;8.732;2023-04-19T12:01:17;25.48;;;15.35;;
33830;SDS011;20137;48.834;8.732;2023-04-19T12:06:27;22.40;;;13.75;;
33830;SDS011;20137;48.834;8.732;2023-04-19T12:08:56;27.58;;;13.40;;
33830;SDS011;20137;48.834;8.732;2023-04-19T12:12:04;25.90;;;14.75;;
33830;SDS011;20137;48.834;8.732;2023-04-19T12:14:14;27.50;;;13.98;;
33830;SDS011;20137;48.834;8.732;2023-04-19T12:16:42;24.27;;;14.10;;
33830;SDS011;20137;48.834;8.732;2023-04-19T12:19:15;21.00;;;12.45;;
33830;SDS011;20137;48.834;8.732;2023-04-19T12:21:44;22.20;;;13.35;;
33830;SDS011;20137;48.834;8.732;2023-04-19T12:24:11;22.77;;;13.90;;
33830;SDS011;20137;48.834;8.732;2023-04-19T12:26:51;22.70;;;13.93;;
33830;SDS011;20137;48.834;8.732;2023-04-19T12:29:19;23.23;;;13.93;;
33830;SDS011;20137;48.834;8.732;2023-04-19T12:31:44;23.92;;;15.43;;
33830;SDS011;20137;48.834;8.732;2023-04-19T12:34:10;23.98;;;15.98;;
33830;SDS011;20137;48.834;8.732;2023-04-19T12:36:36;25.30;;;16.73;;
33830;SDS011;20137;48.834;8.732;2023-04-19T12:39:01;26.85;;;16.00;;
33830;SDS011;20137;48.834;8.732;2023-04-19T12:41:27;26.02;;;15.82;;
33830;SDS011;20137;48.834;8.732;2023-04-19T12:43:53;27.02;;;17.15;;
33830;SDS011;20137;48.834;8.732;2023-04-19T12:46:18;30.08;;;17.55;;
33830;SDS011;20137;48.834;8.732;2023-04-19T12:48:44;28.10;;;18.60;;
33830;SDS011;20137;48.834;8.732;2023-04-19T12:51:10;30.65;;;18.38;;
33830;SDS011;20137;48.834;8.732;2023-04-19T12:53:35;28.38;;;18.38;;
33830;SDS011;20137;48.834;8.732;2023-04-19T12:56:01;38.00;;;22.15;;
33830;SDS011;20137;48.834;8.732;2023-04-19T12:58:27;33.83;;;21.10;;
33830;SDS011;20137;48.834;8.732;2023-04-19T13:00:52;36.05;;;22.73;;
33830;SDS011;20137;48.834;8.732;2023-04-19T13:03:18;45.55;;;23.27;;
33830;SDS011;20137;48.834;8.732;2023-04-19T13:05:44;40.03;;;22.17;;
33830;SDS011;20137;48.834;8.732;2023-04-19T13:08:10;43.78;;;24.05;;
33830;SDS011;20137;48.834;8.732;2023-04-19T13:10:35;48.42;;;24.70;;
33830;SDS011;20137;48.834;8.732;2023-04-19T13:13:01;48.45;;;24.13;;
33830;SDS011;20137;48.834;8.732;2023-04-19T13:15:27;37.72;;;22.85;;
33830;SDS011;20137;48.834;8.732;2023-04-19T13:17:53;46.65;;;24.58;;
33830;SDS011;20137;48.834;8.732;2023-04-19T13:20:19;46.45;;;23.88;;
33830;SDS011;20137;48.834;8.732;2023-04-19T13:22:44;42.97;;;24.17;;
33830;SDS011;20137;48.834;8.732;2023-04-19T13:25:10;44.63;;;26.35;;
33830;SDS011;20137;48.834;8.732;2023-04-19T13:27:36;43.80;;;25.23;;
33830;SDS011;20137;48.834;8.732;2023-04-19T13:30:02;37.78;;;20.50;;
33830;SDS011;20137;48.834;8.732;2023-04-19T13:32:28;35.63;;;19.75;;
33830;SDS011;20137;48.834;8.732;2023-04-19T13:34:53;33.33;;;18.65;;
33830;SDS011;20137;48.834;8.732;2023-04-19T13:37:19;33.83;;;19.73;;
33830;SDS011;20137;48.834;8.732;2023-04-19T13:39:46;33.33;;;19.00;;
33830;SDS011;20137;48.834;8.732;2023-04-19T13:42:12;34.75;;;19.88;;
33830;SDS011;20137;48.834;8.732;2023-04-19T13:44:38;34.83;;;20.13;;
33830;SDS011;20137;48.834;8.732;2023-04-19T13:47:04;30.23;;;19.40;;
33830;SDS011;20137;48.834;8.732;2023-04-19T13:49:30;33.70;;;18.42;;
33830;SDS011;20137;48.834;8.732;2023-04-19T13:51:56;32.67;;;19.40;;
33830;SDS011;20137;48.834;8.732;2023-04-19T13:54:21;29.40;;;17.52;;
33830;SDS011;20137;48.834;8.732;2023-04-19T13:56:47;27.92;;;17.38;;
33830;SDS011;20137;48.834;8.732;2023-04-19T13:59:13;30.80;;;17.95;;
33830;SDS011;20137;48.834;8.732;2023-04-19T14:01:39;31.60;;;18.58;;
33830;SDS011;20137;48.834;8.732;2023-04-19T14:04:05;30.77;;;18.13;;
33830;SDS011;20137;48.834;8.732;2023-04-19T14:06:31;30.45;;;18.63;;
33830;SDS011;20137;48.834;8.732;2023-04-19T14:08:57;26.92;;;17.50;;
33830;SDS011;20137;48.834;8.732;2023-04-19T14:11:24;27.50;;;18.13;;
33830;SDS011;20137;48.834;8.732;2023-04-19T14:13:50;30.92;;;17.42;;
33830;SDS011;20137;48.834;8.732;2023-04-19T14:16:16;28.48;;;17.25;;
33830;SDS011;20137;48.834;8.732;2023-04-19T14:18:42;27.50;;;16.35;;
33830;SDS011;20137;48.834;8.732;2023-04-19T14:21:08;26.25;;;15.52;;
33830;SDS011;20137;48.834;8.732;2023-04-19T14:23:34;24.67;;;16.45;;
33830;SDS011;20137;48.834;8.732;2023-04-19T14:25:59;25.45;;;15.52;;
33830;SDS011;20137;48.834;8.732;2023-04-19T14:28:25;25.75;;;16.42;;
33830;SDS011;20137;48.834;8.732;2023-04-19T14:30:51;23.58;;;15.38;;
33830;SDS011;20137;48.834;8.732;2023-04-19T14:33:17;28.20;;;17.48;;
33830;SDS011;20137;48.834;8.732;2023-04-19T14:35:43;27.85;;;16.67;;
33830;SDS011;20137;48.834;8.732;2023-04-19T14:38:08;29.25;;;17.23;;
33830;SDS011;20137;48.834;8.732;2023-04-19T14:40:34;27.02;;;15.57;;
33830;SDS011;20137;48.834;8.732;2023-04-19T14:43:00;23.35;;;15.85;;
33830;SDS011;20137;48.834;8.732;2023-04-19T14:45:25;27.30;;;17.60;;
33830;SDS011;20137;48.834;8.732;2023-04-19T14:47:51;26.45;;;16.52;;
33830;SDS011;20137;48.834;8.732;2023-04-19T14:50:17;29.20;;;17.90;;
33830;SDS011;20137;48.834;8.732;2023-04-19T14:52:43;23.50;;;14.90;;
33830;SDS011;20137;48.834;8.732;2023-04-19T14:55:09;25.20;;;15.73;;